createdAt,value
2022-11-01T00:03:52.524Z,17.00
2022-11-01T00:07:54.470Z,17.13
2022-11-01T00:11:56.360Z,18.10
2022-11-01T00:15:58.262Z,17.83
2022-11-01T00:20:00.253Z,18.90
2022-11-01T00:24:02.147Z,20.03
2022-11-01T00:28:04.509Z,21.10
2022-11-01T00:32:07.093Z,22.17
2022-11-01T00:36:09.237Z,23.43
2022-11-01T00:40:11.837Z,23.23
2022-11-01T00:44:13.674Z,23.37
2022-11-01T00:48:15.465Z,24.00
2022-11-01T00:52:17.401Z,23.53
2022-11-01T00:56:19.307Z,21.63
2022-11-01T01:00:21.233Z,21.67
2022-11-01T01:04:25.843Z,23.20
2022-11-01T01:08:28.188Z,23.97
2022-11-01T01:12:30.339Z,24.17
2022-11-01T01:16:35.097Z,26.37
2022-11-01T01:20:37.263Z,24.23
2022-11-01T01:24:45.455Z,25.07
2022-11-01T01:28:54.044Z,24.60
2022-11-01T01:32:59.166Z,25.67
2022-11-01T01:37:01.101Z,26.10
2022-11-01T01:41:21.934Z,26.33
2022-11-01T01:45:34.419Z,27.73
2022-11-01T01:49:38.697Z,28.33
2022-11-01T01:53:50.674Z,26.83
2022-11-01T01:57:52.780Z,25.60
2022-11-01T02:01:54.806Z,27.93
2022-11-01T02:06:17.207Z,26.00
2022-11-01T02:10:21.943Z,25.43
2022-11-01T02:14:23.831Z,26.80
2022-11-01T02:18:38.120Z,24.93
2022-11-01T02:23:32.469Z,25.20
2022-11-01T02:28:05.028Z,25.40
2022-11-01T02:32:20.805Z,23.67
2022-11-01T02:36:31.349Z,23.37
2022-11-01T02:41:03.642Z,23.90
2022-11-01T02:45:11.070Z,22.93
2022-11-01T02:49:19.399Z,22.90
2022-11-01T02:53:21.361Z,22.77
2022-11-01T02:57:28.443Z,21.60
2022-11-01T03:02:07.880Z,22.17
2022-11-01T03:06:35.464Z,21.17
2022-11-01T03:11:14.346Z,19.87
2022-11-01T03:15:47.748Z,18.83
2022-11-01T03:20:22.810Z,17.70
2022-11-01T03:24:35.579Z,16.37
2022-11-01T03:28:45.242Z,16.20
2022-11-01T03:32:49.465Z,15.47
2022-11-01T03:37:11.555Z,15.83
2022-11-01T03:41:15.201Z,14.40
2022-11-01T03:45:20.803Z,14.40
2022-11-01T03:49:22.696Z,12.80
2022-11-01T03:59:16.415Z,13.17
2022-11-01T04:03:18.251Z,13.30
2022-11-01T04:07:20.147Z,13.00
2022-11-01T04:11:21.974Z,13.43
2022-11-01T04:15:43.074Z,13.10
2022-11-01T04:20:23.130Z,12.93
2022-11-01T04:24:24.909Z,12.73
2022-11-01T04:28:26.815Z,12.30
2022-11-01T04:32:28.611Z,12.07
2022-11-01T04:36:30.540Z,11.70
2022-11-01T04:40:33.053Z,12.43
2022-11-01T04:44:34.843Z,12.50
2022-11-01T04:48:36.668Z,11.27
2022-11-01T04:52:38.446Z,11.07
2022-11-01T04:56:40.319Z,11.47
2022-11-01T05:00:44.042Z,12.10
2022-11-01T05:04:45.938Z,11.77
2022-11-01T05:08:47.793Z,10.83
2022-11-01T05:12:49.605Z,11.80
2022-11-01T05:16:51.461Z,10.33
2022-11-01T05:20:53.285Z,10.60
2022-11-01T05:24:55.087Z,10.50
2022-11-01T05:28:56.990Z,11.60
2022-11-01T05:32:59.903Z,10.80
2022-11-01T05:37:01.887Z,10.77
2022-11-01T05:41:04.372Z,10.33
2022-11-01T05:45:07.085Z,10.33
2022-11-01T05:49:09.011Z,10.93
2022-11-01T05:53:10.935Z,10.80
2022-11-01T05:57:12.841Z,11.00
2022-11-01T06:01:17.207Z,10.37
2022-11-01T06:05:19.164Z,10.37
2022-11-01T06:09:21.133Z,10.40
2022-11-01T06:13:23.026Z,10.90
2022-11-01T06:17:27.797Z,10.73
2022-11-01T06:21:30.489Z,10.93
2022-11-01T06:25:36.694Z,10.80
2022-11-01T06:29:38.713Z,10.50
2022-11-01T06:33:40.504Z,10.50
2022-11-01T06:37:42.592Z,10.43
2022-11-01T06:41:44.469Z,11.13
2022-11-01T06:45:49.264Z,11.20
2022-11-01T06:49:51.119Z,10.80
2022-11-01T06:53:52.950Z,11.20
2022-11-01T06:57:56.271Z,11.30
2022-11-01T07:01:58.291Z,10.60
2022-11-01T07:06:03.513Z,10.73
2022-11-01T07:10:05.995Z,11.20
2022-11-01T07:14:07.772Z,10.17
2022-11-01T07:18:09.898Z,10.30
2022-11-01T07:22:11.726Z,11.80
2022-11-01T07:26:13.597Z,12.20
2022-11-01T07:30:15.686Z,11.87
2022-11-01T07:34:17.587Z,11.37
2022-11-01T07:38:19.873Z,11.83
2022-11-01T07:42:21.739Z,12.07
2022-11-01T07:46:23.849Z,12.23
2022-11-01T07:50:25.779Z,12.07
2022-11-01T07:54:27.623Z,11.77
2022-11-01T07:58:29.663Z,11.43
2022-11-01T08:02:31.534Z,11.77
2022-11-01T08:06:33.449Z,11.20
2022-11-01T08:10:35.523Z,10.80
2022-11-01T08:14:37.382Z,11.23
2022-11-01T08:18:39.274Z,10.80
2022-11-01T08:22:41.240Z,10.37
2022-11-01T08:26:43.410Z,10.63
2022-11-01T08:30:46.590Z,10.33
2022-11-01T08:34:48.829Z,9.57
2022-11-01T08:38:50.623Z,10.37
2022-11-01T08:42:52.481Z,10.87
2022-11-01T08:47:05.039Z,10.63
2022-11-01T08:51:07.162Z,9.73
2022-11-01T08:55:26.887Z,9.53
2022-11-01T09:00:04.414Z,10.77
2022-11-01T09:04:07.602Z,11.30
2022-11-01T09:08:09.444Z,10.63
2022-11-01T09:12:14.660Z,10.27
2022-11-01T09:16:17.163Z,10.00
2022-11-01T09:20:19.592Z,10.33
2022-11-01T09:24:21.533Z,10.07
2022-11-01T09:28:23.587Z,9.97
2022-11-01T09:32:29.233Z,11.00
2022-11-01T09:36:31.189Z,10.60
2022-11-01T09:40:39.099Z,10.17
2022-11-01T09:44:44.126Z,10.83
2022-11-01T09:48:46.357Z,10.67
2022-11-01T09:52:50.097Z,10.47
2022-11-01T09:57:05.993Z,10.60
2022-11-01T10:02:09.521Z,10.20
2022-11-01T10:06:52.120Z,10.87
2022-11-01T10:11:02.735Z,10.23
2022-11-01T10:15:22.810Z,10.23
2022-11-01T10:19:26.264Z,10.60
2022-11-01T10:23:48.508Z,11.43
2022-11-01T10:28:13.336Z,11.90
2022-11-01T10:32:41.771Z,12.27
2022-11-01T10:36:45.116Z,11.73
2022-11-01T10:40:51.594Z,12.00
2022-11-01T10:44:56.000Z,12.50
2022-11-01T10:49:01.463Z,11.97
2022-11-01T10:53:07.129Z,11.30
2022-11-01T10:57:12.729Z,11.90
2022-11-01T11:01:19.429Z,10.83
2022-11-01T11:05:21.441Z,11.40
2022-11-01T11:09:35.783Z,11.60
2022-11-01T11:13:38.131Z,10.50
2022-11-01T11:17:42.641Z,10.30
2022-11-01T11:21:45.012Z,11.00
2022-11-01T11:25:46.980Z,10.47
2022-11-01T11:30:09.020Z,10.33
2022-11-01T11:34:19.788Z,10.70
2022-11-01T11:38:40.014Z,10.80
2022-11-01T11:42:41.930Z,10.17
2022-11-01T11:46:56.800Z,11.07
2022-11-01T11:51:05.887Z,10.77
2022-11-01T11:55:43.653Z,11.07
2022-11-01T12:04:07.809Z,10.10
2022-11-01T12:08:25.429Z,10.30
2022-11-01T12:12:32.517Z,8.80
2022-11-01T12:16:41.440Z,10.20
2022-11-01T12:20:43.943Z,10.73
2022-11-01T12:24:50.528Z,9.47
2022-11-01T12:29:38.649Z,7.00
2022-11-01T12:33:45.853Z,3.07
2022-11-01T12:38:06.240Z,2.83
2022-11-01T12:42:08.449Z,2.93
2022-11-01T12:46:19.301Z,2.80
2022-11-01T12:50:42.928Z,2.83
2022-11-01T12:55:15.331Z,3.17
2022-11-01T12:59:40.068Z,2.87
2022-11-01T13:04:08.201Z,2.77
2022-11-01T13:08:55.497Z,2.90
2022-11-01T13:13:49.489Z,2.90
2022-11-01T13:18:00.707Z,2.80
2022-11-01T13:22:21.406Z,2.70
2022-11-01T13:26:50.692Z,3.00
2022-11-01T13:31:13.197Z,8.53
2022-11-01T13:35:58.998Z,11.33
2022-11-01T13:46:19.031Z,11.33
2022-11-01T13:51:04.003Z,13.73
2022-11-01T13:55:22.883Z,12.40
2022-11-01T13:59:38.074Z,12.47
2022-11-01T14:03:40.143Z,11.23
2022-11-01T14:07:44.976Z,6.30
2022-11-01T14:12:00.413Z,4.00
2022-11-01T14:16:19.470Z,2.93
2022-11-01T14:20:31.580Z,3.13
2022-11-01T14:24:35.435Z,2.80
2022-11-01T14:28:51.086Z,2.90
2022-11-01T14:33:01.472Z,3.20
2022-11-01T14:37:11.678Z,3.10
2022-11-01T14:41:16.419Z,3.33
2022-11-01T14:45:45.684Z,3.80
2022-11-01T14:49:50.225Z,3.10
2022-11-01T14:54:22.777Z,3.37
2022-11-01T15:04:27.463Z,3.60
2022-11-01T15:08:32.892Z,3.30
2022-11-01T15:12:48.058Z,3.37
2022-11-01T15:16:53.648Z,3.53
2022-11-01T15:25:28.205Z,3.80
2022-11-01T15:29:30.715Z,4.33
2022-11-01T15:33:41.261Z,4.80
2022-11-01T15:37:58.803Z,4.10
2022-11-01T15:42:35.174Z,5.30
2022-11-01T15:47:39.777Z,3.87
2022-11-01T15:52:49.205Z,3.53
2022-11-01T15:58:27.614Z,5.70
2022-11-01T16:02:05.884Z,15.90
2022-11-01T16:07:13.232Z,16.00
2022-11-01T16:11:27.848Z,16.17
2022-11-01T16:15:38.710Z,16.20
2022-11-01T16:19:56.941Z,16.47
2022-11-01T16:24:34.340Z,16.27
2022-11-01T16:28:43.332Z,18.53
2022-11-01T16:32:51.650Z,18.70
2022-11-01T16:41:39.608Z,18.47
2022-11-01T16:45:43.253Z,18.17
2022-11-01T16:49:50.401Z,19.13
2022-11-01T16:53:53.346Z,18.87
2022-11-01T16:57:55.533Z,20.47
2022-11-01T17:01:58.586Z,19.93
2022-11-01T17:06:00.690Z,20.27
2022-11-01T17:10:14.393Z,21.37
2022-11-01T17:14:17.510Z,18.30
2022-11-01T17:18:29.261Z,17.87
2022-11-01T17:22:34.811Z,17.43
2022-11-01T17:26:36.767Z,17.63
2022-11-01T17:30:50.292Z,18.23
2022-11-01T17:34:53.806Z,17.23
2022-11-01T17:38:55.659Z,18.63
2022-11-01T17:43:14.514Z,17.17
2022-11-01T17:47:18.897Z,17.03
2022-11-01T17:52:38.587Z,17.73
2022-11-01T18:06:20.917Z,17.30
2022-11-01T18:10:35.677Z,19.10
2022-11-01T18:21:12.466Z,17.97
2022-11-01T18:25:32.927Z,17.37
2022-11-01T18:29:39.954Z,17.93
2022-11-01T18:34:08.910Z,19.03
2022-11-01T18:38:52.457Z,21.37
2022-11-01T18:42:54.631Z,19.77
2022-11-01T18:47:42.045Z,20.87
2022-11-01T18:51:44.784Z,20.20
2022-11-01T18:55:52.106Z,19.97
2022-11-01T20:56:12.665Z,20.23
2022-11-01T21:05:25.837Z,20.70
2022-11-01T21:10:02.929Z,20.33
2022-11-01T22:34:00.394Z,9.93
2022-11-01T22:38:19.202Z,15.03
2022-11-01T22:42:21.195Z,13.53
2022-11-01T22:46:57.946Z,10.60
2022-11-01T22:51:14.010Z,7.50
2022-11-01T22:55:28.352Z,6.67
2022-11-01T22:59:33.903Z,5.27
2022-11-01T23:03:39.853Z,5.00
2022-11-01T23:07:53.353Z,5.60
2022-11-01T23:12:32.826Z,13.93
2022-11-01T23:16:39.919Z,15.73
2022-11-01T23:20:41.938Z,13.93
2022-11-01T23:24:44.006Z,14.87
2022-11-01T23:29:01.221Z,14.93
2022-11-01T23:33:03.574Z,14.87
2022-11-01T23:37:12.878Z,13.93
2022-11-01T23:41:27.536Z,15.33
2022-11-01T23:45:38.565Z,13.43
2022-11-01T23:49:40.448Z,13.80
2022-11-01T23:53:42.400Z,12.27
2022-11-01T23:57:44.236Z,12.67
